Time;durP1;ratioP1;P1;durP2;ratioP2;P2;SDS_P1;SDS_P2;PMS_P1;PMS_P2;Temp;Humidity;BMP_temperature;BMP_pressure;BME280_temperature;BME280_humidity;BME280_pressure;Samples;Min_cycle;Max_cycle;Signal;HPM_P1;HPM_P2
2022/04/14 00:01:54;;;;;;;0.10;0.10;;;;;;;16.13;97.95;101220.88;5031748;28;20064;-65
2022/04/14 00:04:19;;;;;;;0.08;0.08;;;;;;;16.10;97.62;101216.19;5042330;28;20036;-66
2022/04/14 00:06:50;;;;;;;0.20;0.20;;;;;;;16.06;98.47;101214.63;5040290;28;20037;-66
2022/04/14 00:09:15;;;;;;;0.00;0.00;;;;;;;16.02;98.94;101190.16;5047659;28;20067;-65
2022/04/14 00:11:41;;;;;;;0.20;0.20;;;;;;;15.97;98.52;101176.91;5046842;28;20025;-65
2022/04/14 00:14:07;;;;;;;0.30;0.30;;;;;;;15.99;98.75;101176.53;5046478;28;20043;-65
2022/04/14 00:16:33;;;;;;;0.10;0.10;;;;;;;15.97;98.71;101178.84;5035471;28;20623;-66
2022/04/14 00:18:58;;;;;;;0.13;0.13;;;;;;;15.94;99.20;101169.53;5030114;28;20091;-66
2022/04/14 00:21:23;;;;;;;0.57;0.57;;;;;;;15.96;99.83;101172.63;5046277;28;20831;-64
2022/04/14 00:23:52;;;;;;;0.08;0.08;;;;;;;15.95;99.74;101171.06;5046943;28;20047;-65
2022/04/14 00:26:17;;;;;;;0.00;0.00;;;;;;;15.97;99.54;101170.69;5030391;28;20030;-65
2022/04/14 00:28:43;;;;;;;0.28;0.20;;;;;;;15.93;99.45;101172.63;5026200;28;20033;-65
2022/04/14 00:31:08;;;;;;;0.00;0.00;;;;;;;15.89;100.00;101156.28;5025289;28;20460;-65
2022/04/14 00:33:34;;;;;;;0.00;0.00;;;;;;;15.92;100.00;101152.81;5026317;28;20104;-65
2022/04/14 00:36:02;;;;;;;0.10;0.10;;;;;;;15.81;100.00;101151.97;5026703;28;20038;-65
2022/04/14 00:38:27;;;;;;;0.28;0.28;;;;;;;15.89;100.00;101150.09;5026458;28;20041;-65
2022/04/14 00:40:55;;;;;;;0.10;0.10;;;;;;;15.92;99.45;101146.59;5026494;28;20033;-66
2022/04/14 00:43:28;;;;;;;0.10;0.10;;;;;;;15.78;100.00;101143.78;5034210;28;20483;-65
2022/04/14 00:45:53;;;;;;;0.00;0.00;;;;;;;15.78;100.00;101155.44;5046961;28;20044;-65
2022/04/14 00:48:19;;;;;;;0.00;0.00;;;;;;;15.75;100.00;101156.19;5034590;28;20416;-65
2022/04/14 00:50:44;;;;;;;0.10;0.10;;;;;;;15.67;100.00;101151.88;5046102;28;20051;-65
2022/04/14 00:53:10;;;;;;;0.13;0.13;;;;;;;15.75;100.00;101161.63;5046326;28;20067;-65
2022/04/14 00:55:35;;;;;;;0.10;0.10;;;;;;;16.02;98.48;101160.25;5046421;28;20056;-66
2022/04/14 00:58:00;;;;;;;0.00;0.00;;;;;;;15.75;100.00;101164.34;5026992;28;20108;-65
2022/04/14 01:00:26;;;;;;;0.00;0.00;;;;;;;15.63;100.00;101167.34;5021043;28;20580;-64
2022/04/14 01:02:53;;;;;;;0.30;0.30;;;;;;;15.71;100.00;101187.97;5025365;28;20037;-65
2022/04/14 01:05:20;;;;;;;0.00;0.00;;;;;;;15.62;100.00;101195.63;5024399;28;20041;-65
2022/04/14 01:07:46;;;;;;;0.00;0.00;;;;;;;15.60;100.00;101192.50;5025619;28;20424;-66
2022/04/14 01:10:12;;;;;;;0.00;0.00;;;;;;;15.60;100.00;101206.09;5025617;28;20705;-66
2022/04/14 01:12:37;;;;;;;0.10;0.10;;;;;;;15.69;100.00;101209.28;5025493;28;20044;-65
2022/04/14 01:15:03;;;;;;;0.00;0.00;;;;;;;15.64;100.00;101187.13;5026415;28;20033;-66
2022/04/14 01:17:29;;;;;;;0.30;0.30;;;;;;;15.65;100.00;101177.81;5033271;28;20147;-65
2022/04/14 01:19:54;;;;;;;0.10;0.10;;;;;;;15.62;100.00;101168.47;5046460;28;20033;-66
2022/04/14 01:22:35;;;;;;;0.00;0.00;;;;;;;15.57;100.00;101179.69;5045725;28;20480;-65
2022/04/14 01:25:01;;;;;;;0.00;0.00;;;;;;;15.50;100.00;101187.78;5029343;28;20045;-65
2022/04/14 01:27:30;;;;;;;0.10;0.10;;;;;;;15.45;100.00;101184.66;5006655;28;20045;-66
2022/04/14 01:29:56;;;;;;;0.00;0.00;;;;;;;15.45;100.00;101181.94;5025680;28;20064;-65
2022/04/14 01:32:22;;;;;;;0.10;0.10;;;;;;;15.45;100.00;101168.38;5026213;28;20068;-65
2022/04/14 01:34:49;;;;;;;0.00;0.00;;;;;;;15.46;100.00;101165.25;5025500;28;20025;-65
2022/04/14 01:37:14;;;;;;;1.35;0.13;;;;;;;15.49;100.00;101156.34;5024903;28;20532;-65
2022/04/14 01:39:41;;;;;;;0.30;0.30;;;;;;;15.45;100.00;101162.94;5025632;28;20056;-65
2022/04/14 01:42:09;;;;;;;0.00;0.00;;;;;;;15.41;100.00;101171.00;5023791;28;20515;-66
2022/04/14 01:44:38;;;;;;;0.20;0.20;;;;;;;15.30;100.00;101178.25;5035552;28;20397;-65
2022/04/14 01:47:06;;;;;;;0.00;0.00;;;;;;;15.29;100.00;101166.63;5044788;28;20111;-65
2022/04/14 01:49:32;;;;;;;0.00;0.00;;;;;;;15.33;100.00;101164.72;5045596;28;20121;-65
2022/04/14 01:51:57;;;;;;;0.68;0.32;;;;;;;15.47;100.00;101168.75;5033828;28;20041;-65
2022/04/14 01:54:23;;;;;;;0.10;0.10;;;;;;;15.43;100.00;101176.84;5043732;28;20777;-65
2022/04/14 01:56:52;;;;;;;0.10;0.10;;;;;;;15.28;100.00;101175.13;5044332;28;20572;-65
2022/04/14 01:59:18;;;;;;;0.30;0.30;;;;;;;15.31;100.00;101190.69;5044667;28;20044;-65
2022/04/14 02:01:43;;;;;;;0.43;0.43;;;;;;;15.29;100.00;101171.28;5027057;28;20029;-65
2022/04/14 02:04:08;;;;;;;0.08;0.08;;;;;;;15.36;100.00;101172.13;5027201;28;20041;-65
2022/04/14 02:06:35;;;;;;;0.35;0.35;;;;;;;15.33;100.00;101155.78;5044188;28;20029;-66
2022/04/14 02:09:00;;;;;;;0.10;0.10;;;;;;;15.31;100.00;101163.56;5031094;28;20068;-65
2022/04/14 02:11:26;;;;;;;0.00;0.00;;;;;;;15.32;100.00;101165.09;5024028;28;20052;-65
2022/04/14 02:13:51;;;;;;;0.03;0.03;;;;;;;15.31;100.00;101161.59;5025175;28;20030;-66
2022/04/14 02:16:17;;;;;;;0.00;0.00;;;;;;;15.33;100.00;101166.66;5024527;28;20413;-66
2022/04/14 02:18:42;;;;;;;0.10;0.10;;;;;;;15.20;100.00;101159.94;5024643;28;20102;-66
2022/04/14 02:21:08;;;;;;;0.98;0.90;;;;;;;15.21;100.00;101166.94;5044798;28;20067;-66
2022/04/14 02:23:34;;;;;;;0.00;0.00;;;;;;;15.17;100.00;101166.13;5026868;28;20615;-65
2022/04/14 02:25:59;;;;;;;0.65;0.65;;;;;;;15.17;100.00;101157.97;5033690;28;20041;-65
2022/04/14 02:28:24;;;;;;;0.00;0.00;;;;;;;15.17;100.00;101163.41;5044081;28;20025;-66
2022/04/14 02:30:50;;;;;;;1.20;1.10;;;;;;;15.10;100.00;101157.91;5044676;28;20037;-65
2022/04/14 02:33:16;;;;;;;0.20;0.20;;;;;;;15.05;100.00;101160.97;5031577;28;20431;-66
2022/04/14 02:35:41;;;;;;;0.30;0.30;;;;;;;15.12;100.00;101166.44;5024074;28;20079;-66
2022/04/14 02:38:07;;;;;;;0.10;0.10;;;;;;;15.15;100.00;101177.34;5023894;28;20014;-66
2022/04/14 02:40:32;;;;;;;0.13;0.13;;;;;;;15.14;100.00;101175.78;5024327;28;20032;-66
2022/04/14 02:42:58;;;;;;;0.55;0.55;;;;;;;15.13;100.00;101168.81;5024711;28;20036;-65
2022/04/14 02:45:25;;;;;;;0.25;0.25;;;;;;;15.29;100.00;101142.19;5023914;28;20092;-66
2022/04/14 02:47:51;;;;;;;0.03;0.03;;;;;;;15.20;100.00;101143.66;5024046;28;20041;-66
2022/04/14 02:50:17;;;;;;;0.22;0.22;;;;;;;15.07;100.00;101140.44;5024363;28;20037;-66
2022/04/14 02:52:45;;;;;;;0.20;0.20;;;;;;;15.12;100.00;101133.88;5023002;28;20029;-65
2022/04/14 02:55:11;;;;;;;0.00;0.00;;;;;;;15.09;100.00;101145.50;5048573;28;20454;-66
2022/04/14 02:57:36;;;;;;;0.00;0.00;;;;;;;15.02;100.00;101140.00;5044228;28;20615;-65
2022/04/14 03:00:05;;;;;;;0.10;0.10;;;;;;;14.86;100.00;101148.38;5043466;28;20112;-66
2022/04/14 03:02:33;;;;;;;0.08;0.08;;;;;;;14.96;100.00;101144.97;5021921;28;20037;-65
2022/04/14 03:04:58;;;;;;;0.10;0.10;;;;;;;15.00;100.00;101150.44;5023963;28;20095;-65
2022/04/14 03:07:24;;;;;;;0.00;0.00;;;;;;;14.91;100.00;101152.66;5022273;28;20040;-65
2022/04/14 03:09:49;;;;;;;0.63;0.52;;;;;;;14.86;100.00;101151.09;5023346;28;20039;-66
2022/04/14 03:12:15;;;;;;;0.10;0.10;;;;;;;14.86;100.00;101142.16;5023900;28;20116;-65
2022/04/14 03:14:40;;;;;;;0.00;0.00;;;;;;;14.90;100.00;101138.34;5006135;28;20393;-64
2022/04/14 03:17:05;;;;;;;0.40;0.40;;;;;;;14.96;100.00;101134.13;5005978;28;20543;-66
2022/04/14 03:19:31;;;;;;;0.20;0.20;;;;;;;14.86;100.00;101134.81;5029740;28;20033;-65
2022/04/14 03:21:58;;;;;;;0.10;0.10;;;;;;;14.83;100.00;101132.81;5043905;28;20506;-65
2022/04/14 03:24:23;;;;;;;0.32;0.32;;;;;;;14.78;100.00;101135.88;5037659;28;20506;-66
2022/04/14 03:26:49;;;;;;;0.00;0.00;;;;;;;14.67;100.00;101140.41;5026830;28;20029;-66
2022/04/14 03:29:14;;;;;;;0.00;0.00;;;;;;;14.70;100.00;101136.94;5049073;28;20124;-65
2022/04/14 03:31:40;;;;;;;0.20;0.20;;;;;;;14.76;100.00;101134.69;5043471;28;20041;-66
2022/04/14 03:34:05;;;;;;;0.65;0.65;;;;;;;14.81;100.00;101137.06;5030427;28;20025;-65
2022/04/14 03:36:30;;;;;;;0.05;0.05;;;;;;;14.81;100.00;101137.06;5006564;28;20448;-66
2022/04/14 03:38:56;;;;;;;0.40;0.40;;;;;;;14.80;100.00;101143.63;5023464;28;20040;-65
2022/04/14 03:41:21;;;;;;;0.30;0.30;;;;;;;14.71;100.00;101145.88;5024918;28;20060;-66
2022/04/14 03:43:47;;;;;;;0.45;0.45;;;;;;;14.83;100.00;101148.31;5027396;28;20072;-66
2022/04/14 03:46:14;;;;;;;0.20;0.20;;;;;;;14.72;100.00;101144.72;5026789;28;20029;-65
2022/04/14 03:48:41;;;;;;;0.55;0.55;;;;;;;14.64;100.00;101148.47;5058309;28;20032;-65
2022/04/14 03:51:07;;;;;;;0.22;0.22;;;;;;;14.68;100.00;101141.16;5065970;28;20402;-66
2022/04/14 03:53:32;;;;;;;0.13;0.13;;;;;;;14.74;100.00;101140.47;5041203;28;20039;-66
2022/04/14 03:55:58;;;;;;;0.00;0.00;;;;;;;14.67;100.00;101134.19;5046286;28;20356;-66
2022/04/14 03:58:23;;;;;;;0.00;0.00;;;;;;;14.70;100.00;101139.66;5037971;28;20041;-65
2022/04/14 04:00:49;;;;;;;0.20;0.20;;;;;;;14.54;100.00;101141.03;5047621;28;20383;-64
2022/04/14 04:03:14;;;;;;;0.20;0.20;;;;;;;14.55;100.00;101140.66;5041184;28;20203;-64
2022/04/14 04:05:40;;;;;;;1.45;1.10;;;;;;;14.48;100.00;101147.91;5047393;28;20524;-65
2022/04/14 04:08:06;;;;;;;0.17;0.17;;;;;;;14.48;100.00;101142.50;5046552;28;20045;-66
2022/04/14 04:10:32;;;;;;;0.22;0.22;;;;;;;14.50;100.00;101138.25;5047086;28;20059;-64
2022/04/14 04:12:57;;;;;;;0.10;0.10;;;;;;;14.41;100.00;101143.19;5035019;28;20723;-65
2022/04/14 04:15:23;;;;;;;0.00;0.00;;;;;;;14.54;100.00;101135.59;5026774;28;20095;-65
2022/04/14 04:17:51;;;;;;;0.10;0.10;;;;;;;14.45;100.00;101139.38;5026628;28;20084;-66
2022/04/14 04:20:18;;;;;;;0.00;0.00;;;;;;;14.46;100.00;101138.22;5009147;28;20032;-66
2022/04/14 04:22:43;;;;;;;0.13;0.13;;;;;;;14.46;100.00;101135.50;5026390;28;20493;-65
2022/04/14 04:25:09;;;;;;;0.10;0.10;;;;;;;14.42;100.00;101137.38;5026927;28;20035;-65
2022/04/14 04:27:35;;;;;;;0.03;0.03;;;;;;;14.35;100.00;101140.00;5026435;28;20111;-65
2022/04/14 04:30:01;;;;;;;0.13;0.13;;;;;;;14.46;100.00;101140.91;5031875;28;20059;-65
2022/04/14 04:32:26;;;;;;;0.10;0.10;;;;;;;14.46;100.00;101140.91;5046866;28;20064;-65
2022/04/14 04:34:52;;;;;;;0.20;0.20;;;;;;;14.42;100.00;101144.72;5036154;28;20162;-66
2022/04/14 04:37:17;;;;;;;0.20;0.20;;;;;;;14.32;100.00;101148.88;5044223;28;20048;-65
2022/04/14 04:39:42;;;;;;;0.20;0.20;;;;;;;14.24;100.00;101149.13;5046828;28;20025;-65
2022/04/14 04:42:08;;;;;;;0.15;0.15;;;;;;;14.23;100.00;101148.34;5045495;28;20553;-66
2022/04/14 04:44:33;;;;;;;0.35;0.35;;;;;;;14.26;100.00;101149.53;5036481;28;20488;-66
2022/04/14 04:46:59;;;;;;;0.25;0.25;;;;;;;14.39;100.00;101145.47;5046017;28;20025;-65
2022/04/14 04:49:33;;;;;;;0.10;0.10;;;;;;;14.32;100.00;101143.44;5037827;28;20094;-65
2022/04/14 04:52:01;;;;;;;0.20;0.20;;;;;;;14.34;100.00;101146.56;5046075;28;20037;-66
2022/04/14 04:54:27;;;;;;;0.10;0.10;;;;;;;14.35;100.00;101139.22;5045943;28;20079;-66
2022/04/14 04:56:53;;;;;;;0.13;0.13;;;;;;;14.40;100.00;101150.53;5028478;28;20091;-66
2022/04/14 04:59:18;;;;;;;0.45;0.45;;;;;;;14.37;100.00;101143.13;5023501;28;20041;-65
2022/04/14 05:01:44;;;;;;;0.82;0.55;;;;;;;14.41;100.00;101135.03;5035629;28;20029;-65
2022/04/14 05:04:11;;;;;;;0.30;0.30;;;;;;;14.41;100.00;101127.69;5047327;28;20041;-65
2022/04/14 05:06:40;;;;;;;0.35;0.35;;;;;;;14.46;100.00;101132.78;5046441;28;20400;-65
2022/04/14 05:09:06;;;;;;;0.00;0.00;;;;;;;14.29;100.00;101152.31;5038451;28;20079;-65
2022/04/14 05:11:32;;;;;;;0.10;0.10;;;;;;;14.32;100.00;101146.16;5025480;28;20490;-65
2022/04/14 05:13:58;;;;;;;0.17;0.17;;;;;;;14.21;100.00;101155.25;5025782;28;20117;-65
2022/04/14 05:16:24;;;;;;;0.05;0.05;;;;;;;14.18;100.00;101159.50;5025847;28;20119;-66
2022/04/14 05:18:50;;;;;;;0.30;0.30;;;;;;;14.18;100.00;101148.66;5019918;28;20064;-66
2022/04/14 05:21:15;;;;;;;0.25;0.22;;;;;;;14.14;100.00;101166.78;5046266;28;20123;-66
2022/04/14 05:23:41;;;;;;;1.40;1.30;;;;;;;14.13;100.00;101167.91;5028624;28;20124;-64
2022/04/14 05:26:07;;;;;;;0.22;0.22;;;;;;;14.22;100.00;101164.97;5045512;28;20053;-65
2022/04/14 05:28:32;;;;;;;0.30;0.30;;;;;;;14.30;100.00;101158.53;5042898;28;20017;-65
2022/04/14 05:30:58;;;;;;;0.05;0.05;;;;;;;14.25;100.00;101165.00;5045892;28;20032;-66
2022/04/14 05:33:23;;;;;;;0.20;0.20;;;;;;;14.25;100.00;101161.50;5045998;28;20040;-66
2022/04/14 05:35:49;;;;;;;0.80;0.45;;;;;;;14.26;100.00;101157.66;5045668;28;20032;-66
2022/04/14 05:38:14;;;;;;;0.25;0.25;;;;;;;14.30;100.00;101164.69;5030506;28;20111;-66
2022/04/14 05:40:45;;;;;;;0.10;0.10;;;;;;;14.26;100.00;101169.28;5025844;28;20488;-65
2022/04/14 05:43:18;;;;;;;0.10;0.10;;;;;;;14.26;100.00;101171.22;5025334;28;20063;-65
2022/04/14 05:45:44;;;;;;;0.10;0.10;;;;;;;14.36;100.00;101160.53;5007300;28;20045;-65
2022/04/14 05:48:14;;;;;;;0.05;0.05;;;;;;;14.27;100.00;101168.16;5024947;28;20033;-65
2022/04/14 05:50:41;;;;;;;0.10;0.10;;;;;;;14.18;100.00;101148.66;5025363;28;20041;-65
2022/04/14 05:53:07;;;;;;;0.17;0.17;;;;;;;14.21;100.00;101174.22;5024923;28;20017;-65
2022/04/14 05:55:32;;;;;;;0.10;0.10;;;;;;;14.30;100.00;101159.28;5025692;28;20082;-65
2022/04/14 05:57:58;;;;;;;0.20;0.20;;;;;;;14.30;100.00;101159.28;5044807;28;20055;-65
2022/04/14 06:00:23;;;;;;;0.00;0.00;;;;;;;14.26;100.00;101157.66;5045082;28;20016;-66
2022/04/14 06:02:49;;;;;;;0.40;0.40;;;;;;;14.42;100.00;101169.13;5044471;28;20041;-66
2022/04/14 06:05:14;;;;;;;0.20;0.20;;;;;;;14.34;100.00;101170.94;5024055;28;20029;-65
2022/04/14 06:07:39;;;;;;;0.20;0.20;;;;;;;14.37;100.00;101170.25;5020173;28;20041;-65
2022/04/14 06:10:05;;;;;;;0.03;0.03;;;;;;;14.39;100.00;101172.56;5045624;28;20487;-64
2022/04/14 06:12:31;;;;;;;0.35;0.35;;;;;;;14.41;100.00;101173.00;5042495;28;20037;-65
2022/04/14 06:14:56;;;;;;;0.20;0.20;;;;;;;14.45;100.00;101171.91;5044952;28;20033;-66
2022/04/14 06:17:22;;;;;;;0.10;0.10;;;;;;;14.54;100.00;101174.31;5034699;28;20052;-66
2022/04/14 06:19:47;;;;;;;0.05;0.05;;;;;;;14.48;100.00;101168.44;5025180;28;20943;-66
2022/04/14 06:22:24;;;;;;;0.30;0.30;;;;;;;14.62;100.00;101181.38;5025059;28;20033;-66
2022/04/14 06:24:50;;;;;;;0.30;0.30;;;;;;;14.56;100.00;101176.66;5024484;28;20068;-67
2022/04/14 06:27:15;;;;;;;0.73;0.73;;;;;;;14.64;100.00;101175.59;5024345;28;20100;-66
2022/04/14 06:29:41;;;;;;;0.13;0.13;;;;;;;14.58;100.00;101177.06;5026700;28;20471;-66
2022/04/14 06:32:07;;;;;;;0.13;0.13;;;;;;;14.55;100.00;101177.81;5044202;28;20056;-66
2022/04/14 06:34:32;;;;;;;0.40;0.40;;;;;;;14.61;100.00;101179.06;5044090;28;20514;-66
2022/04/14 06:36:57;;;;;;;0.40;0.40;;;;;;;14.63;100.00;101177.53;5026169;28;20179;-66
2022/04/14 06:39:23;;;;;;;0.00;0.00;;;;;;;14.63;100.00;101176.75;5043858;28;20032;-65
2022/04/14 06:41:48;;;;;;;0.10;0.10;;;;;;;14.65;100.00;101174.44;5044193;28;20037;-66
2022/04/14 06:44:15;;;;;;;0.10;0.10;;;;;;;14.58;100.00;101172.44;5044346;28;20029;-65
2022/04/14 06:46:40;;;;;;;0.10;0.10;;;;;;;14.64;100.00;101178.31;5019345;28;20435;-66
2022/04/14 06:49:06;;;;;;;0.10;0.10;;;;;;;14.69;100.00;101175.28;5024533;28;20037;-65
2022/04/14 06:51:31;;;;;;;0.10;0.10;;;;;;;14.67;100.00;101166.72;5023980;28;20084;-66
2022/04/14 06:53:57;;;;;;;0.52;0.40;;;;;;;14.79;100.00;101180.81;5024539;28;20038;-65
2022/04/14 06:56:22;;;;;;;0.30;0.28;;;;;;;14.81;100.00;101172.31;5024296;28;20040;-66
2022/04/14 06:58:48;;;;;;;0.10;0.10;;;;;;;14.84;100.00;101180.50;5024387;28;20064;-65
2022/04/14 07:01:13;;;;;;;0.20;0.20;;;;;;;14.81;100.00;101181.22;5043023;28;20064;-66
2022/04/14 07:03:39;;;;;;;0.30;0.30;;;;;;;14.91;100.00;101182.50;5042929;28;20484;-65
2022/04/14 07:06:04;;;;;;;0.73;0.22;;;;;;;14.91;100.00;101183.28;5039377;28;20045;-65
2022/04/14 07:08:33;;;;;;;0.43;0.28;;;;;;;14.95;100.00;101194.16;5023571;28;20060;-66
2022/04/14 07:10:59;;;;;;;0.98;0.10;;;;;;;14.96;100.00;101193.03;5024031;28;20038;-65
2022/04/14 07:13:25;;;;;;;0.00;0.00;;;;;;;14.94;100.00;101195.34;5006320;28;20055;-65
2022/04/14 07:15:50;;;;;;;0.10;0.10;;;;;;;15.08;100.00;101192.75;5025925;28;20124;-65
2022/04/14 07:18:16;;;;;;;0.73;0.73;;;;;;;14.99;100.00;101203.13;5027872;28;20128;-66
2022/04/14 07:20:41;;;;;;;0.20;0.20;;;;;;;15.00;100.00;101194.63;5028166;28;20045;-65
2022/04/14 07:23:07;;;;;;;2.00;0.35;;;;;;;14.93;100.00;101191.84;5026430;28;20065;-66
2022/04/14 07:25:41;;;;;;;0.10;0.10;;;;;;;14.93;100.00;101191.84;5027726;28;20484;-66
2022/04/14 07:28:07;;;;;;;0.30;0.30;;;;;;;15.24;100.00;101185.19;5025133;28;20039;-66
2022/04/14 07:30:33;;;;;;;0.20;0.20;;;;;;;15.05;100.00;101191.59;5039417;28;20108;-65
2022/04/14 07:33:00;;;;;;;0.65;0.35;;;;;;;15.09;100.00;101191.63;5047206;28;20041;-65
2022/04/14 07:35:26;;;;;;;0.20;0.20;;;;;;;15.07;100.00;101196.63;5046451;28;20036;-65
2022/04/14 07:37:52;;;;;;;0.10;0.10;;;;;;;15.33;100.00;101189.16;5026629;28;20058;-66
2022/04/14 07:40:26;;;;;;;0.10;0.10;;;;;;;15.24;100.00;101191.41;5028164;28;20491;-66
2022/04/14 07:42:55;;;;;;;0.32;0.32;;;;;;;15.22;100.00;101204.56;5027494;28;20875;-65
2022/04/14 07:45:21;;;;;;;0.35;0.35;;;;;;;15.20;100.00;101189.78;5027780;28;20092;-65
2022/04/14 07:47:47;;;;;;;0.00;0.00;;;;;;;15.26;100.00;101199.16;5026949;28;20120;-66
2022/04/14 07:50:15;;;;;;;0.43;0.40;;;;;;;15.32;100.00;101203.88;5026509;28;20135;-65
2022/04/14 07:52:50;;;;;;;0.10;0.10;;;;;;;15.38;100.00;101205.13;5026713;28;20120;-66
2022/04/14 07:55:24;;;;;;;0.80;0.65;;;;;;;15.52;100.00;101209.94;5012466;28;20028;-66
2022/04/14 07:57:51;;;;;;;0.60;0.60;;;;;;;15.77;100.00;101207.41;5016172;28;20055;-66
2022/04/14 08:00:18;;;;;;;0.50;0.38;;;;;;;15.48;100.00;101205.59;5045644;28;20040;-67
2022/04/14 08:02:49;;;;;;;0.35;0.32;;;;;;;15.29;100.00;101209.28;5021920;28;20029;-65
2022/04/14 08:05:14;;;;;;;0.40;0.40;;;;;;;15.36;100.00;101209.34;5046763;28;20511;-64
2022/04/14 08:07:40;;;;;;;0.05;0.05;;;;;;;15.30;100.00;101206.19;5045597;28;20036;-65
2022/04/14 08:10:05;;;;;;;0.47;0.47;;;;;;;15.52;100.00;101217.28;5042287;28;20021;-66
2022/04/14 08:12:31;;;;;;;0.40;0.40;;;;;;;15.51;100.00;101211.06;5027004;28;20555;-65
2022/04/14 08:14:56;;;;;;;0.20;0.20;;;;;;;15.46;100.00;101216.06;5027240;28;20055;-65
2022/04/14 08:17:21;;;;;;;0.15;0.13;;;;;;;15.56;100.00;101208.03;5025985;28;20045;-65
2022/04/14 08:19:47;;;;;;;0.45;0.45;;;;;;;15.52;100.00;101215.34;5026892;28;20511;-65
2022/04/14 08:22:12;;;;;;;0.15;0.15;;;;;;;15.72;100.00;101205.03;5026382;28;20040;-65
2022/04/14 08:24:38;;;;;;;0.00;0.00;;;;;;;15.62;100.00;101197.59;5026615;28;20481;-65
2022/04/14 08:27:03;;;;;;;0.57;0.40;;;;;;;15.53;100.00;101203.31;5025244;28;20037;-65
2022/04/14 08:29:29;;;;;;;0.10;0.10;;;;;;;15.62;100.00;101208.47;5035571;28;20122;-65
2022/04/14 08:31:56;;;;;;;0.88;0.68;;;;;;;15.58;100.00;101208.41;5046497;28;20162;-64
2022/04/14 08:34:22;;;;;;;0.63;0.45;;;;;;;15.77;100.00;101213.63;5047199;28;20533;-65
2022/04/14 08:36:47;;;;;;;0.45;0.43;;;;;;;15.63;100.00;101212.72;5045846;28;20033;-64
2022/04/14 08:39:12;;;;;;;0.20;0.20;;;;;;;15.59;100.00;101212.69;5028042;28;20112;-65
2022/04/14 08:41:42;;;;;;;0.22;0.22;;;;;;;15.81;100.00;101216.38;5026535;28;20041;-65
2022/04/14 08:44:10;;;;;;;0.32;0.32;;;;;;;15.98;100.00;101216.50;5026407;28;20068;-66
2022/04/14 08:46:36;;;;;;;0.70;0.25;;;;;;;15.89;100.00;101218.75;5040520;28;20123;-65
2022/04/14 08:49:03;;;;;;;0.40;0.40;;;;;;;15.80;100.00;101223.72;5043798;28;20116;-66
2022/04/14 08:51:33;;;;;;;0.13;0.13;;;;;;;15.96;99.64;101216.13;5046680;28;20040;-66
2022/04/14 08:53:59;;;;;;;0.45;0.45;;;;;;;15.85;100.00;101217.94;5045577;28;20062;-66
2022/04/14 08:56:25;;;;;;;0.77;0.77;;;;;;;16.01;99.73;101223.09;5046512;28;20036;-66
2022/04/14 08:58:54;;;;;;;0.30;0.30;;;;;;;16.22;97.86;101224.03;5044017;28;20550;-66
2022/04/14 09:01:21;;;;;;;0.47;0.47;;;;;;;16.08;99.30;101218.53;5044015;28;20029;-65
2022/04/14 09:03:46;;;;;;;0.70;0.70;;;;;;;16.05;99.87;101222.00;5045865;28;20029;-65
2022/04/14 09:06:13;;;;;;;0.22;0.22;;;;;;;16.11;99.59;101215.03;5046192;28;20032;-66
2022/04/14 09:08:38;;;;;;;0.85;0.85;;;;;;;16.25;99.25;101217.88;5027696;28;20532;-65
2022/04/14 09:11:07;;;;;;;0.70;0.70;;;;;;;16.53;98.14;101216.50;5025235;28;20120;-66
2022/04/14 09:13:32;;;;;;;0.13;0.13;;;;;;;16.72;96.72;101213.47;5025509;28;20041;-66
2022/04/14 09:15:58;;;;;;;0.20;0.20;;;;;;;16.53;97.26;101211.81;5030360;28;20094;-66
2022/04/14 09:18:23;;;;;;;1.40;1.35;;;;;;;16.76;96.01;101208.84;5044769;28;20040;-66
2022/04/14 09:21:02;;;;;;;0.75;0.32;;;;;;;16.62;97.26;101215.00;5045903;28;20045;-65
2022/04/14 09:23:27;;;;;;;0.25;0.25;;;;;;;16.82;95.10;101218.19;5044870;28;20484;-65
2022/04/14 09:26:14;;;;;;;0.45;0.40;;;;;;;16.97;92.86;101214.34;5025743;28;20037;-65
2022/04/14 09:28:41;;;;;;;0.15;0.15;;;;;;;16.68;94.71;101218.91;5025114;28;20033;-66
2022/04/14 09:31:08;;;;;;;0.00;0.00;;;;;;;16.61;96.08;101229.75;5024359;28;20044;-65
2022/04/14 09:33:36;;;;;;;0.20;0.20;;;;;;;16.70;94.87;101224.75;5025085;28;20033;-66
2022/04/14 09:36:09;;;;;;;0.20;0.20;;;;;;;16.87;94.59;101220.53;5025579;28;20037;-66
2022/04/14 09:39:00;;;;;;;0.32;0.30;;;;;;;17.03;93.23;101224.47;5024079;28;20037;-66
2022/04/14 09:41:37;;;;;;;0.13;0.13;;;;;;;16.57;94.51;101226.22;5024810;28;20488;-65
2022/04/14 09:44:10;;;;;;;0.60;0.60;;;;;;;16.82;92.57;101218.94;5024340;28;20045;-66
2022/04/14 09:46:37;;;;;;;0.60;0.57;;;;;;;16.71;93.32;101214.63;5035862;28;20040;-66
2022/04/14 09:49:08;;;;;;;0.17;0.08;;;;;;;16.63;93.72;101213.03;5027395;28;20029;-66
2022/04/14 09:51:39;;;;;;;0.80;0.80;;;;;;;16.96;91.23;101216.28;5045199;28;20398;-65
2022/04/14 09:54:17;;;;;;;0.28;0.28;;;;;;;16.83;92.27;101212.38;5032610;28;20373;-66
2022/04/14 09:56:54;;;;;;;0.13;0.13;;;;;;;17.04;90.71;101214.38;5036913;28;20025;-66
2022/04/14 09:59:28;;;;;;;0.20;0.20;;;;;;;16.97;89.69;101214.34;5122071;27;20896;-65
2022/04/14 10:02:16;;;;;;;0.30;0.30;;;;;;;16.67;90.61;101216.56;5097804;28;20118;-67
2022/04/14 10:04:43;;;;;;;0.22;0.20;;;;;;;16.95;89.49;101213.97;5126494;27;20035;-66
2022/04/14 10:07:13;;;;;;;0.85;0.55;;;;;;;17.06;89.84;101209.31;5141596;27;20039;-65
2022/04/14 10:09:48;;;;;;;0.20;0.20;;;;;;;16.94;90.85;101209.66;5142829;27;20074;-67
2022/04/14 10:12:19;;;;;;;0.22;0.22;;;;;;;17.39;89.66;101219.91;5131982;27;20036;-67
2022/04/14 10:14:57;;;;;;;;;;;;;;;17.80;88.33;101217.63;5101741;28;20057;-67
2022/04/14 10:17:24;;;;;;;0.25;0.25;;;;;;;17.91;85.47;101226.56;5107939;27;20284;-65
2022/04/14 10:19:50;;;;;;;1.05;0.82;;;;;;;17.87;84.90;101220.34;5122063;27;20451;-65
2022/04/14 10:22:16;;;;;;;0.43;0.43;;;;;;;17.80;84.60;101231.25;5121690;27;20405;-65
2022/04/14 10:24:43;;;;;;;0.30;0.30;;;;;;;17.65;85.60;101237.88;5104139;27;20058;-65
2022/04/14 10:27:10;;;;;;;0.38;0.38;;;;;;;17.66;84.95;101229.31;5099780;28;20088;-65
2022/04/14 10:29:38;;;;;;;0.10;0.10;;;;;;;17.76;85.97;101222.31;5099930;28;20364;-66
2022/04/14 10:32:05;;;;;;;0.30;0.30;;;;;;;17.88;86.05;101214.53;5105444;28;20504;-65
2022/04/14 10:34:32;;;;;;;0.10;0.10;;;;;;;18.03;85.17;101209.84;5121786;27;20091;-66
2022/04/14 10:36:59;;;;;;;0.52;0.52;;;;;;;18.59;82.43;101231.56;5121015;27;20118;-64
2022/04/14 10:39:28;;;;;;;0.63;0.63;;;;;;;18.77;78.13;101220.59;5121859;27;20019;-66
2022/04/14 10:41:54;;;;;;;1.10;0.45;;;;;;;18.74;78.22;101216.69;5112216;27;20066;-65
2022/04/14 10:44:21;;;;;;;0.77;0.77;;;;;;;18.98;76.43;101215.03;5124502;27;20396;-66
2022/04/14 10:46:50;;;;;;;0.30;0.30;;;;;;;18.83;76.78;101211.56;5121550;27;20036;-66
2022/04/14 10:49:25;;;;;;;0.20;0.20;;;;;;;18.76;76.48;101216.28;5106628;27;20356;-64
2022/04/14 10:51:53;;;;;;;0.28;0.28;;;;;;;18.89;76.13;101207.25;5110829;27;20054;-65
2022/04/14 10:54:19;;;;;;;0.15;0.15;;;;;;;18.60;77.48;101216.72;5121322;27;20104;-65
2022/04/14 10:56:50;;;;;;;0.55;0.55;;;;;;;18.93;76.82;101208.03;5117253;27;20036;-65
2022/04/14 10:59:31;;;;;;;0.00;0.00;;;;;;;19.12;77.12;101214.97;5119905;27;20438;-65
2022/04/14 11:02:02;;;;;;;0.13;0.13;;;;;;;19.34;75.39;101215.63;5101124;28;20104;-65
2022/04/14 11:04:27;;;;;;;0.40;0.40;;;;;;;19.72;73.11;101209.88;5107931;27;20119;-65
2022/04/14 11:06:59;;;;;;;0.15;0.15;;;;;;;19.91;72.20;101221.44;5120768;27;20260;-65
2022/04/14 11:09:41;;;;;;;0.52;0.35;;;;;;;20.06;70.56;101223.66;5116148;27;20040;-66
2022/04/14 11:12:08;;;;;;;0.90;0.15;;;;;;;20.30;69.81;101219.16;5107265;28;20627;-65
2022/04/14 11:14:43;;;;;;;0.10;0.10;;;;;;;20.40;69.05;101224.50;5101200;28;20023;-65
2022/04/14 11:17:53;;;;;;;0.73;0.73;;;;;;;20.60;66.12;101224.69;5101639;28;20119;-65
2022/04/14 11:20:36;;;;;;;0.30;0.30;;;;;;;20.75;64.53;101220.56;5092137;28;20055;-65